Alliance, Nebraska
Current Conditions -  °F | °C
As of 6:53 PM on Friday 28 Nov 2014 (Local Time) from KAIA Reporting Station
Clear Clear  
Wind Chill: 45°   Ceiling: Unl
Heat Index: 45°   Visibility: 10mi
Dew Point: 18°   Wind: 3mph
Humidity: 34%   Direction: 280°W
Pressure: 29.68"   Gusts: NA
Location:  42.1°N, 102.87°W
Report Text: KAIA 290153Z AUTO 28003KT 10SM CLR 07/M08 A2968 RMK AO2 SLP051 T00721078
Loading
Personal Weather Stations






























Interactive Weather Map New forecast layout! Learn more

10-Day Weather Forecast

Advertisements
Track Severe Weather on mobile